createdAt,value
2023-03-04T07:18:47.746Z,3.90
2023-03-04T07:21:17.417Z,4.06
2023-03-04T07:23:45.291Z,4.18
2023-03-04T07:26:13.127Z,4.39
2023-03-04T07:28:42.766Z,4.44
2023-03-04T07:31:32.128Z,4.55
2023-03-04T07:34:06.758Z,4.58
2023-03-04T07:36:37.005Z,4.49
2023-03-04T07:39:05.855Z,4.01
2023-03-04T07:41:36.305Z,3.95
2023-03-04T07:44:07.040Z,4.40
2023-03-04T07:46:34.858Z,4.09
2023-03-04T07:49:02.209Z,4.02
2023-03-04T07:51:29.745Z,4.30
2023-03-04T07:54:01.048Z,4.46
2023-03-04T07:56:33.957Z,4.49
2023-03-04T07:59:02.215Z,4.80
2023-03-04T08:01:37.913Z,4.87
2023-03-04T08:04:07.983Z,4.83
2023-03-04T08:06:35.984Z,4.81
2023-03-04T08:09:07.708Z,4.73
2023-03-04T08:11:38.434Z,4.53
2023-03-04T08:14:06.321Z,4.54
2023-03-04T08:16:33.768Z,4.62
2023-03-04T08:19:04.180Z,4.98
2023-03-04T08:21:32.607Z,5.19
2023-03-04T08:24:07.863Z,5.37
2023-03-04T08:26:46.757Z,4.79
2023-03-04T08:29:24.767Z,4.78
2023-03-04T08:31:54.396Z,5.02
2023-03-04T08:34:27.407Z,5.14
2023-03-04T08:36:55.034Z,4.76
2023-03-04T08:39:22.476Z,5.42
2023-03-04T08:41:50.308Z,5.04
2023-03-04T08:44:17.676Z,5.17
2023-03-04T08:46:45.011Z,5.28
2023-03-04T08:49:14.445Z,5.66
2023-03-04T08:51:41.829Z,5.81
2023-03-04T08:54:09.149Z,5.85
2023-03-04T08:56:36.450Z,6.05
2023-03-04T08:59:04.109Z,6.02
2023-03-04T09:01:31.517Z,5.94
2023-03-04T09:03:58.916Z,5.72
2023-03-04T09:06:26.290Z,6.24
2023-03-04T09:08:53.623Z,5.92
2023-03-04T09:11:21.024Z,6.17
2023-03-04T09:13:48.447Z,6.01
2023-03-04T09:16:16.876Z,6.70
2023-03-04T09:18:44.367Z,6.81
2023-03-04T09:21:12.210Z,7.11
2023-03-04T09:23:40.973Z,6.74
2023-03-04T09:26:26.858Z,7.06
2023-03-04T09:28:59.636Z,6.80
2023-03-04T09:31:30.078Z,7.15
2023-03-04T09:33:59.484Z,7.28
2023-03-04T09:36:26.853Z,7.40
2023-03-04T09:38:54.198Z,7.19
2023-03-04T09:41:37.619Z,7.09
2023-03-04T09:44:43.218Z,6.83
2023-03-04T09:47:17.612Z,7.05
2023-03-04T09:50:01.267Z,7.71
2023-03-04T09:53:21.303Z,7.47
2023-03-04T09:55:53.000Z,7.85
2023-03-04T09:59:00.207Z,7.77
2023-03-04T10:01:42.617Z,7.86
2023-03-04T10:04:50.964Z,7.83
2023-03-04T10:07:33.416Z,7.65
2023-03-04T10:10:10.642Z,7.99
2023-03-04T10:12:42.814Z,8.16
2023-03-04T10:15:46.202Z,8.35
2023-03-04T10:18:48.370Z,8.28
2023-03-04T10:21:36.261Z,8.79
2023-03-04T10:24:18.789Z,8.64
2023-03-04T10:27:01.531Z,9.21
2023-03-04T10:29:32.637Z,8.92
2023-03-04T10:32:00.484Z,9.24
2023-03-04T10:34:28.169Z,9.48
2023-03-04T10:37:07.536Z,9.65
2023-03-04T10:39:46.291Z,9.77
2023-03-04T10:42:16.477Z,9.64
2023-03-04T10:45:01.072Z,9.87
2023-03-04T10:47:33.548Z,10.16
2023-03-04T10:50:05.650Z,10.40
2023-03-04T10:52:49.969Z,10.62
2023-03-04T10:55:28.410Z,10.53
2023-03-04T10:58:13.521Z,10.06
2023-03-04T11:00:41.247Z,10.78
2023-03-04T11:03:31.922Z,10.94
2023-03-04T11:06:13.367Z,11.12
2023-03-04T11:08:42.583Z,11.31
2023-03-04T11:11:42.950Z,11.60
2023-03-04T11:14:34.679Z,11.51
2023-03-04T11:17:45.355Z,11.95
2023-03-04T11:20:48.278Z,11.52
2023-03-04T11:23:39.517Z,10.87
2023-03-04T11:26:19.522Z,11.82
2023-03-04T11:29:31.621Z,12.31
2023-03-04T11:32:21.325Z,11.87
2023-03-04T11:35:25.344Z,12.73
2023-03-04T11:38:37.723Z,11.71
2023-03-04T11:41:19.191Z,12.91
2023-03-04T11:43:47.720Z,12.91
2023-03-04T11:47:22.837Z,13.00
2023-03-04T11:50:29.397Z,13.42
2023-03-04T11:53:34.086Z,13.45
2023-03-04T11:56:35.258Z,13.19
2023-03-04T11:59:54.398Z,13.58
2023-03-04T12:02:46.974Z,13.31
2023-03-04T12:06:06.244Z,13.81
2023-03-04T12:09:21.726Z,13.94
2023-03-04T12:12:33.599Z,14.09
2023-03-04T12:15:51.418Z,14.43
2023-03-04T12:18:55.838Z,13.73
2023-03-04T12:22:23.316Z,14.30
2023-03-04T12:25:53.728Z,14.35
2023-03-04T12:29:43.116Z,13.34
2023-03-04T12:33:02.576Z,13.71
2023-03-04T12:35:58.795Z,14.01
2023-03-04T12:38:53.599Z,14.65
2023-03-04T12:42:23.243Z,13.95
2023-03-04T12:45:43.857Z,14.05
2023-03-04T12:48:50.242Z,14.53
2023-03-04T12:52:18.117Z,14.35
2023-03-04T12:54:58.184Z,14.10
2023-03-04T12:57:31.636Z,14.60
2023-03-04T13:00:13.300Z,14.70
2023-03-04T13:03:09.299Z,14.48
2023-03-04T13:06:13.889Z,13.90
2023-03-04T13:09:24.075Z,14.87
2023-03-04T13:12:24.677Z,15.42
2023-03-04T13:15:10.221Z,15.28
2023-03-04T13:18:01.546Z,15.56
2023-03-04T13:20:41.884Z,15.35
2023-03-04T13:23:14.964Z,15.71
2023-03-04T13:26:32.911Z,16.12
2023-03-04T13:29:18.592Z,15.66
2023-03-04T13:32:12.671Z,16.04
2023-03-04T13:34:57.934Z,15.64
2023-03-04T13:37:37.029Z,16.01
2023-03-04T13:40:23.433Z,16.21
2023-03-04T13:42:51.383Z,15.45
2023-03-04T13:45:37.389Z,16.50
2023-03-04T13:48:33.146Z,16.07
2023-03-04T13:51:00.731Z,16.87
2023-03-04T13:54:08.092Z,16.56
2023-03-04T13:56:40.668Z,16.59
2023-03-04T13:59:07.745Z,16.12
2023-03-04T14:01:43.041Z,16.13
2023-03-04T14:04:56.292Z,15.78
2023-03-04T14:07:36.770Z,15.85
2023-03-04T14:10:12.333Z,16.05
2023-03-04T14:12:58.856Z,15.94
2023-03-04T14:15:32.108Z,15.90
2023-03-04T14:18:04.730Z,15.40
2023-03-04T14:20:39.600Z,15.59
2023-03-04T14:23:42.527Z,15.91
2023-03-04T14:26:18.056Z,15.43
2023-03-04T14:28:52.684Z,15.62
2023-03-04T14:31:25.105Z,15.39
2023-03-04T14:33:59.848Z,15.60
2023-03-04T14:36:29.581Z,15.85
2023-03-04T14:39:03.260Z,15.72
2023-03-04T14:41:39.413Z,15.17
2023-03-04T14:44:40.508Z,15.46
2023-03-04T14:47:45.350Z,14.92
2023-03-04T14:50:20.178Z,14.85
2023-03-04T14:53:26.119Z,15.47
2023-03-04T14:56:10.575Z,14.84
2023-03-04T14:58:53.432Z,14.76
2023-03-04T15:01:32.414Z,14.81
2023-03-04T15:04:05.867Z,14.94
2023-03-04T15:06:39.222Z,14.56
2023-03-04T15:09:25.409Z,15.08
2023-03-04T15:12:08.299Z,14.70
2023-03-04T15:15:24.784Z,14.63
2023-03-04T15:18:22.990Z,14.96
2023-03-04T15:21:20.203Z,14.66
2023-03-04T15:23:47.964Z,14.95
2023-03-04T15:26:15.394Z,14.90
2023-03-04T15:28:43.410Z,15.01
2023-03-04T15:31:24.158Z,15.28
2023-03-04T15:33:52.533Z,15.10
2023-03-04T15:36:23.992Z,14.83
2023-03-04T15:38:53.569Z,14.76
2023-03-04T15:41:28.033Z,14.74
2023-03-04T15:43:55.578Z,15.30
2023-03-04T15:46:23.107Z,14.87
2023-03-04T15:48:50.818Z,14.96
2023-03-04T15:51:23.151Z,14.97
2023-03-04T15:53:57.600Z,15.59
2023-03-04T15:56:31.773Z,14.93
2023-03-04T15:59:16.579Z,14.99
2023-03-04T16:01:44.147Z,15.10
2023-03-04T16:04:17.647Z,15.17
2023-03-04T16:06:50.385Z,14.74
2023-03-04T16:09:21.079Z,14.50
2023-03-04T16:11:48.573Z,14.25
2023-03-04T16:14:17.084Z,14.28
2023-03-04T16:16:46.487Z,14.27
2023-03-04T16:19:13.801Z,14.03
2023-03-04T16:21:41.580Z,13.89
2023-03-04T16:24:19.933Z,13.58
2023-03-04T16:26:48.425Z,13.54
2023-03-04T16:29:16.854Z,13.57
2023-03-04T16:31:44.363Z,13.66
2023-03-04T16:34:11.999Z,13.65
2023-03-04T16:36:39.513Z,13.49
2023-03-04T16:39:22.763Z,13.66
2023-03-04T16:41:51.625Z,13.52
2023-03-04T16:44:19.144Z,12.93
2023-03-04T16:46:46.532Z,12.99
2023-03-04T16:49:13.859Z,12.89
2023-03-04T16:51:50.239Z,12.83
2023-03-04T16:54:31.814Z,12.84
2023-03-04T16:57:00.208Z,12.75
2023-03-04T16:59:29.235Z,12.16
2023-03-04T17:01:57.174Z,12.21
2023-03-04T17:04:24.863Z,12.24
2023-03-04T17:06:52.385Z,12.18
2023-03-04T17:09:19.745Z,12.02
2023-03-04T17:11:47.322Z,11.71
2023-03-04T17:14:14.637Z,11.66
2023-03-04T17:16:42.719Z,11.77
2023-03-04T17:19:10.026Z,11.23
2023-03-04T17:21:37.303Z,11.45
2023-03-04T17:24:04.856Z,11.17
2023-03-04T17:26:32.648Z,10.84
2023-03-04T17:28:59.974Z,10.66
2023-03-04T17:31:27.312Z,10.74
2023-03-04T17:33:54.611Z,10.80
2023-03-04T17:36:22.118Z,10.35
2023-03-04T17:38:51.928Z,10.44
2023-03-04T17:41:19.697Z,10.47
2023-03-04T17:43:51.766Z,10.44
2023-03-04T17:46:25.541Z,10.06
2023-03-04T17:48:57.378Z,10.12
2023-03-04T17:51:38.694Z,9.83
2023-03-04T17:54:08.622Z,9.87
2023-03-04T17:56:39.897Z,9.81
2023-03-04T17:59:13.776Z,9.48
2023-03-04T18:01:41.680Z,9.53
2023-03-04T18:04:09.076Z,9.87
2023-03-04T18:06:36.407Z,9.51
2023-03-04T18:09:05.636Z,9.23
2023-03-04T18:11:38.699Z,9.34
2023-03-04T18:14:06.521Z,9.25
2023-03-04T18:16:34.764Z,9.30
2023-03-04T18:19:02.938Z,9.29
2023-03-04T18:21:30.785Z,9.14
2023-03-04T18:23:58.640Z,9.35
2023-03-04T18:26:27.177Z,8.96
2023-03-04T18:28:56.850Z,9.14
2023-03-04T18:31:31.636Z,9.11
2023-03-04T18:34:02.624Z,8.83
2023-03-04T18:36:30.682Z,8.83
2023-03-04T18:38:59.536Z,8.74
2023-03-04T18:41:27.866Z,8.65
2023-03-04T18:43:55.696Z,8.25
2023-03-04T18:46:46.936Z,8.34
2023-03-04T18:49:15.582Z,8.59
2023-03-04T18:51:42.987Z,8.46
2023-03-04T18:54:10.514Z,8.40
2023-03-04T18:56:58.660Z,8.39
2023-03-04T19:00:02.471Z,7.94
2023-03-04T19:02:52.671Z,8.17
2023-03-04T19:05:30.019Z,8.24
2023-03-04T19:07:57.450Z,8.33
2023-03-04T19:10:25.813Z,8.14
2023-03-04T19:12:53.158Z,8.28
2023-03-04T19:15:20.526Z,8.28
2023-03-04T19:17:47.870Z,8.22
2023-03-04T19:20:16.240Z,7.46
2023-03-04T19:22:44.479Z,7.82
2023-03-04T19:25:12.605Z,7.89
2023-03-04T19:27:40.001Z,7.66
2023-03-04T19:30:10.128Z,7.61
2023-03-04T19:32:37.647Z,7.65
2023-03-04T19:35:05.617Z,7.11
2023-03-04T19:37:33.091Z,6.63
2023-03-04T19:40:00.362Z,6.48
2023-03-04T19:42:27.804Z,6.38
2023-03-04T19:44:55.369Z,6.62
2023-03-04T19:47:22.700Z,6.81
2023-03-04T19:49:49.991Z,6.54
2023-03-04T19:52:17.318Z,6.36
2023-03-04T19:54:44.595Z,6.37
2023-03-04T19:57:11.922Z,6.38
2023-03-04T19:59:39.266Z,6.10
2023-03-04T20:02:06.570Z,6.58
2023-03-04T20:04:34.040Z,6.64
2023-03-04T20:07:01.384Z,6.61
2023-03-04T20:09:28.695Z,6.60
2023-03-04T20:11:59.083Z,6.43
2023-03-04T20:14:33.467Z,6.23
2023-03-04T20:17:06.834Z,6.37
2023-03-04T20:19:35.250Z,6.20
2023-03-04T20:22:05.676Z,6.17
2023-03-04T20:24:33.139Z,6.46
2023-03-04T20:27:00.862Z,6.31
2023-03-04T20:29:28.946Z,6.20
2023-03-04T20:31:56.429Z,6.11
2023-03-04T20:34:25.444Z,6.37
2023-03-04T20:36:52.834Z,6.48
2023-03-04T20:39:29.237Z,6.13
2023-03-04T20:41:58.912Z,6.41
2023-03-04T20:44:27.044Z,6.15
2023-03-04T20:46:54.398Z,6.05
2023-03-04T20:49:28.668Z,5.87
2023-03-04T20:52:09.091Z,6.20
2023-03-04T20:54:39.042Z,6.15
2023-03-04T20:57:08.069Z,6.02
2023-03-04T20:59:38.977Z,5.70
2023-03-04T21:02:14.876Z,6.12
2023-03-04T21:04:43.882Z,5.77
2023-03-04T21:07:12.148Z,6.11
2023-03-04T21:09:39.463Z,5.75
2023-03-04T21:12:07.748Z,6.28
2023-03-04T21:14:35.106Z,6.26
2023-03-04T21:17:05.048Z,6.28
2023-03-04T21:19:43.488Z,6.18
2023-03-04T21:22:19.009Z,6.08
2023-03-04T21:24:47.920Z,6.43
2023-03-04T21:27:16.937Z,6.24
2023-03-04T21:29:44.703Z,5.70
2023-03-04T21:32:25.582Z,6.10
2023-03-04T21:34:55.198Z,5.91
2023-03-04T21:37:25.602Z,6.02
2023-03-04T21:39:54.850Z,6.08
2023-03-04T21:42:22.519Z,5.86
2023-03-04T21:44:51.484Z,5.93
2023-03-04T21:47:22.214Z,5.92
2023-03-04T21:49:50.278Z,6.19
2023-03-04T21:52:22.614Z,6.21
2023-03-04T21:54:50.156Z,5.86
2023-03-04T21:57:19.206Z,5.96
2023-03-04T21:59:46.794Z,6.44
2023-03-04T22:02:23.949Z,6.48
2023-03-04T22:04:51.329Z,6.55
2023-03-04T22:07:18.707Z,6.32
2023-03-04T22:09:47.066Z,6.40
2023-03-04T22:12:15.840Z,6.27
2023-03-04T22:14:43.776Z,6.56
2023-03-04T22:17:11.149Z,6.83
